sensor_id;sensor_type;location;lat;lon;timestamp;pressure;altitude;pressure_sealevel;temperature;humidity
11523;BME280;40093;43.224;27.910;2023-03-14T00:01:12;100997.22;;;5.86;89.34
11523;BME280;40093;43.224;27.910;2023-03-14T00:03:39;100987.44;;;5.85;89.25
11523;BME280;40093;43.224;27.910;2023-03-14T00:06:07;100982.78;;;5.77;88.90
11523;BME280;40093;43.224;27.910;2023-03-14T00:08:35;100990.03;;;5.82;89.07
11523;BME280;40093;43.224;27.910;2023-03-14T00:11:06;100978.56;;;5.88;88.57
11523;BME280;40093;43.224;27.910;2023-03-14T00:13:33;100975.84;;;5.88;88.33
11523;BME280;40093;43.224;27.910;2023-03-14T00:16:07;100970.75;;;5.78;88.43
11523;BME280;40093;43.224;27.910;2023-03-14T00:18:34;100971.19;;;5.89;88.02
11523;BME280;40093;43.224;27.910;2023-03-14T00:21:03;100968.69;;;5.96;88.61
11523;BME280;40093;43.224;27.910;2023-03-14T00:23:31;100968.09;;;5.90;87.83
11523;BME280;40093;43.224;27.910;2023-03-14T00:25:59;100964.44;;;5.86;88.17
11523;BME280;40093;43.224;27.910;2023-03-14T00:28:26;100958.81;;;5.91;88.05
11523;BME280;40093;43.224;27.910;2023-03-14T00:30:53;100957.59;;;5.80;88.82
11523;BME280;40093;43.224;27.910;2023-03-14T00:33:23;100951.59;;;5.87;88.38
11523;BME280;40093;43.224;27.910;2023-03-14T00:35:54;100940.53;;;5.83;87.82
11523;BME280;40093;43.224;27.910;2023-03-14T00:38:21;100945.06;;;5.79;87.90
11523;BME280;40093;43.224;27.910;2023-03-14T00:40:49;100927.59;;;5.72;88.23
11523;BME280;40093;43.224;27.910;2023-03-14T00:43:16;100930.78;;;5.74;88.71
11523;BME280;40093;43.224;27.910;2023-03-14T00:45:43;100922.44;;;5.50;89.27
11523;BME280;40093;43.224;27.910;2023-03-14T00:48:10;100919.84;;;5.53;89.82
11523;BME280;40093;43.224;27.910;2023-03-14T00:50:38;100911.72;;;5.65;89.76
11523;BME280;40093;43.224;27.910;2023-03-14T00:53:05;100913.78;;;5.68;89.62
11523;BME280;40093;43.224;27.910;2023-03-14T00:55:36;100905.72;;;5.72;90.01
11523;BME280;40093;43.224;27.910;2023-03-14T00:58:03;100910.47;;;5.63;89.55
11523;BME280;40093;43.224;27.910;2023-03-14T01:00:30;100907.47;;;5.76;89.72
11523;BME280;40093;43.224;27.910;2023-03-14T01:02:57;100904.41;;;5.78;89.91
11523;BME280;40093;43.224;27.910;2023-03-14T01:05:23;100904.03;;;5.88;90.45
11523;BME280;40093;43.224;27.910;2023-03-14T01:07:52;100898.72;;;5.91;90.40
11523;BME280;40093;43.224;27.910;2023-03-14T01:10:19;100892.91;;;5.93;90.83
11523;BME280;40093;43.224;27.910;2023-03-14T01:12:46;100892.81;;;6.01;91.00
11523;BME280;40093;43.224;27.910;2023-03-14T01:15:13;100887.34;;;6.01;90.61
11523;BME280;40093;43.224;27.910;2023-03-14T01:17:40;100894.06;;;6.04;90.72
11523;BME280;40093;43.224;27.910;2023-03-14T01:20:09;100893.44;;;6.07;90.89
11523;BME280;40093;43.224;27.910;2023-03-14T01:22:37;100891.47;;;6.07;90.95
11523;BME280;40093;43.224;27.910;2023-03-14T01:25:08;100893.75;;;6.05;90.88
11523;BME280;40093;43.224;27.910;2023-03-14T01:27:35;100896.94;;;6.07;90.82
11523;BME280;40093;43.224;27.910;2023-03-14T01:30:04;100888.41;;;6.09;90.36
11523;BME280;40093;43.224;27.910;2023-03-14T01:32:33;100889.00;;;6.14;89.52
11523;BME280;40093;43.224;27.910;2023-03-14T01:35:00;100892.66;;;6.18;88.30
11523;BME280;40093;43.224;27.910;2023-03-14T01:37:27;100893.78;;;6.17;87.83
11523;BME280;40093;43.224;27.910;2023-03-14T01:39:54;100885.72;;;6.21;87.43
11523;BME280;40093;43.224;27.910;2023-03-14T01:42:22;100896.78;;;6.24;87.37
11523;BME280;40093;43.224;27.910;2023-03-14T01:44:50;100897.56;;;6.25;86.65
11523;BME280;40093;43.224;27.910;2023-03-14T01:47:17;100901.75;;;6.22;86.44
11523;BME280;40093;43.224;27.910;2023-03-14T01:49:46;100902.22;;;6.12;86.76
11523;BME280;40093;43.224;27.910;2023-03-14T01:52:16;100902.88;;;6.09;87.25
11523;BME280;40093;43.224;27.910;2023-03-14T01:54:48;100895.47;;;6.10;88.25
11523;BME280;40093;43.224;27.910;2023-03-14T01:57:22;100898.41;;;6.05;87.64
11523;BME280;40093;43.224;27.910;2023-03-14T01:59:52;100900.53;;;5.99;88.21
11523;BME280;40093;43.224;27.910;2023-03-14T02:02:21;100896.66;;;6.00;88.11
11523;BME280;40093;43.224;27.910;2023-03-14T02:04:49;100892.81;;;6.01;87.98
11523;BME280;40093;43.224;27.910;2023-03-14T02:07:19;100892.03;;;6.01;88.28
11523;BME280;40093;43.224;27.910;2023-03-14T02:09:48;100889.84;;;5.94;88.25
11523;BME280;40093;43.224;27.910;2023-03-14T02:12:16;100883.78;;;5.89;87.85
11523;BME280;40093;43.224;27.910;2023-03-14T02:14:45;100882.50;;;5.86;88.56
11523;BME280;40093;43.224;27.910;2023-03-14T02:17:14;100877.50;;;5.88;88.63
11523;BME280;40093;43.224;27.910;2023-03-14T02:19:57;100879.78;;;5.86;87.95
11523;BME280;40093;43.224;27.910;2023-03-14T02:22:30;100878.88;;;5.82;88.47
11523;BME280;40093;43.224;27.910;2023-03-14T02:25:04;100882.06;;;5.84;88.50
11523;BME280;40093;43.224;27.910;2023-03-14T02:27:36;100889.56;;;5.87;89.04
11523;BME280;40093;43.224;27.910;2023-03-14T02:30:05;100892.84;;;5.81;88.88
11523;BME280;40093;43.224;27.910;2023-03-14T02:32:33;100902.50;;;5.58;89.64
11523;BME280;40093;43.224;27.910;2023-03-14T02:35:05;100898.94;;;5.57;90.01
11523;BME280;40093;43.224;27.910;2023-03-14T02:37:37;100906.06;;;5.50;90.69
11523;BME280;40093;43.224;27.910;2023-03-14T02:40:06;100905.22;;;5.58;91.48
11523;BME280;40093;43.224;27.910;2023-03-14T02:42:33;100910.06;;;5.52;91.37
11523;BME280;40093;43.224;27.910;2023-03-14T02:45:34;100899.41;;;5.39;91.92
11523;BME280;40093;43.224;27.910;2023-03-14T02:48:05;100912.28;;;5.38;92.36
11523;BME280;40093;43.224;27.910;2023-03-14T02:50:33;100910.91;;;5.24;93.13
11523;BME280;40093;43.224;27.910;2023-03-14T02:53:01;100905.31;;;5.20;93.16
11523;BME280;40093;43.224;27.910;2023-03-14T02:55:28;100903.97;;;5.26;93.17
11523;BME280;40093;43.224;27.910;2023-03-14T02:57:54;100914.25;;;5.29;92.85
11523;BME280;40093;43.224;27.910;2023-03-14T03:00:23;100909.25;;;5.31;92.02
11523;BME280;40093;43.224;27.910;2023-03-14T03:02:50;100906.91;;;5.21;92.21
11523;BME280;40093;43.224;27.910;2023-03-14T03:05:17;100904.19;;;5.21;92.46
11523;BME280;40093;43.224;27.910;2023-03-14T03:07:44;100907.06;;;5.25;92.08
11523;BME280;40093;43.224;27.910;2023-03-14T03:10:11;100901.59;;;5.25;91.92
11523;BME280;40093;43.224;27.910;2023-03-14T03:12:38;100898.09;;;4.95;94.96
11523;BME280;40093;43.224;27.910;2023-03-14T03:15:05;100905.41;;;4.75;97.42
11523;BME280;40093;43.224;27.910;2023-03-14T03:17:34;100895.56;;;4.82;98.24
11523;BME280;40093;43.224;27.910;2023-03-14T03:20:01;100887.63;;;4.97;98.49
11523;BME280;40093;43.224;27.910;2023-03-14T03:22:30;100886.13;;;5.08;98.08
11523;BME280;40093;43.224;27.910;2023-03-14T03:24:57;100879.22;;;5.11;97.24
11523;BME280;40093;43.224;27.910;2023-03-14T03:27:23;100886.88;;;5.17;97.49
11523;BME280;40093;43.224;27.910;2023-03-14T03:29:51;100888.63;;;5.22;97.11
11523;BME280;40093;43.224;27.910;2023-03-14T03:32:18;100893.06;;;5.26;96.28
11523;BME280;40093;43.224;27.910;2023-03-14T03:34:46;100885.81;;;5.30;95.78
11523;BME280;40093;43.224;27.910;2023-03-14T03:37:13;100887.88;;;5.33;94.87
11523;BME280;40093;43.224;27.910;2023-03-14T03:39:40;100874.91;;;5.30;94.56
11523;BME280;40093;43.224;27.910;2023-03-14T03:42:07;100871.50;;;5.33;93.95
11523;BME280;40093;43.224;27.910;2023-03-14T03:44:34;100861.00;;;5.23;94.55
11523;BME280;40093;43.224;27.910;2023-03-14T03:47:01;100860.16;;;5.02;96.17
11523;BME280;40093;43.224;27.910;2023-03-14T03:49:29;100860.38;;;4.97;97.19
11523;BME280;40093;43.224;27.910;2023-03-14T03:51:57;100863.31;;;4.84;97.92
11523;BME280;40093;43.224;27.910;2023-03-14T03:54:24;100874.63;;;4.94;98.65
11523;BME280;40093;43.224;27.910;2023-03-14T03:56:51;100866.75;;;5.01;97.88
11523;BME280;40093;43.224;27.910;2023-03-14T03:59:18;100871.88;;;5.03;97.38
11523;BME280;40093;43.224;27.910;2023-03-14T04:01:46;100868.56;;;4.97;96.31
11523;BME280;40093;43.224;27.910;2023-03-14T04:04:13;100860.03;;;4.99;96.43
11523;BME280;40093;43.224;27.910;2023-03-14T04:06:40;100863.84;;;5.06;95.85
11523;BME280;40093;43.224;27.910;2023-03-14T04:09:09;100869.47;;;5.01;96.16
11523;BME280;40093;43.224;27.910;2023-03-14T04:11:36;100867.88;;;4.72;99.30
11523;BME280;40093;43.224;27.910;2023-03-14T04:14:04;100867.97;;;4.83;99.57
11523;BME280;40093;43.224;27.910;2023-03-14T04:16:31;100870.81;;;4.95;100.00
11523;BME280;40093;43.224;27.910;2023-03-14T04:18:58;100873.63;;;5.07;99.54
11523;BME280;40093;43.224;27.910;2023-03-14T04:21:25;100868.34;;;5.02;100.00
11523;BME280;40093;43.224;27.910;2023-03-14T04:23:52;100867.50;;;5.10;98.70
11523;BME280;40093;43.224;27.910;2023-03-14T04:26:21;100864.94;;;5.05;98.58
11523;BME280;40093;43.224;27.910;2023-03-14T04:28:47;100864.31;;;5.08;97.79
11523;BME280;40093;43.224;27.910;2023-03-14T04:31:18;100860.75;;;5.16;97.22
11523;BME280;40093;43.224;27.910;2023-03-14T04:33:45;100867.78;;;5.17;96.91
11523;BME280;40093;43.224;27.910;2023-03-14T04:36:12;100861.84;;;5.15;96.53
11523;BME280;40093;43.224;27.910;2023-03-14T04:38:40;100861.81;;;5.24;96.16
11523;BME280;40093;43.224;27.910;2023-03-14T04:41:07;100864.78;;;5.31;96.02
11523;BME280;40093;43.224;27.910;2023-03-14T04:43:35;100864.75;;;5.39;95.57
11523;BME280;40093;43.224;27.910;2023-03-14T04:46:02;100871.00;;;5.60;95.52
11523;BME280;40093;43.224;27.910;2023-03-14T04:48:29;100867.75;;;5.99;94.97
11523;BME280;40093;43.224;27.910;2023-03-14T04:50:56;100876.56;;;6.49;93.36
11523;BME280;40093;43.224;27.910;2023-03-14T04:53:23;100867.00;;;6.91;90.27
11523;BME280;40093;43.224;27.910;2023-03-14T04:55:50;100861.47;;;7.39;87.65
11523;BME280;40093;43.224;27.910;2023-03-14T04:58:19;100859.28;;;7.84;85.21
11523;BME280;40093;43.224;27.910;2023-03-14T05:00:47;100856.22;;;8.28;82.54
11523;BME280;40093;43.224;27.910;2023-03-14T05:03:16;100862.00;;;8.70;80.58
11523;BME280;40093;43.224;27.910;2023-03-14T05:05:43;100854.31;;;8.91;78.59
11523;BME280;40093;43.224;27.910;2023-03-14T05:08:10;100846.16;;;9.29;77.63
11523;BME280;40093;43.224;27.910;2023-03-14T05:10:37;100845.84;;;9.49;76.05
11523;BME280;40093;43.224;27.910;2023-03-14T05:13:04;100856.31;;;9.81;74.61
11523;BME280;40093;43.224;27.910;2023-03-14T05:15:31;100862.69;;;10.04;73.51
11523;BME280;40093;43.224;27.910;2023-03-14T05:18:00;100856.69;;;10.18;73.04
11523;BME280;40093;43.224;27.910;2023-03-14T05:20:26;100862.66;;;10.42;70.75
11523;BME280;40093;43.224;27.910;2023-03-14T05:22:53;100864.19;;;10.62;68.79
11523;BME280;40093;43.224;27.910;2023-03-14T05:25:20;100869.19;;;10.79;68.02
11523;BME280;40093;43.224;27.910;2023-03-14T05:27:47;100865.13;;;10.96;67.62
11523;BME280;40093;43.224;27.910;2023-03-14T05:30:14;100870.47;;;11.11;66.53
11523;BME280;40093;43.224;27.910;2023-03-14T05:32:41;100861.00;;;11.35;65.21
11523;BME280;40093;43.224;27.910;2023-03-14T05:35:09;100867.78;;;11.67;64.31
11523;BME280;40093;43.224;27.910;2023-03-14T05:37:36;100867.56;;;11.82;64.06
11523;BME280;40093;43.224;27.910;2023-03-14T05:40:04;100864.41;;;12.13;63.00
11523;BME280;40093;43.224;27.910;2023-03-14T05:42:32;100867.84;;;12.39;61.63
11523;BME280;40093;43.224;27.910;2023-03-14T05:44:59;100877.44;;;12.52;60.76
11523;BME280;40093;43.224;27.910;2023-03-14T05:47:26;100865.34;;;12.28;60.61
11523;BME280;40093;43.224;27.910;2023-03-14T05:49:53;100863.19;;;12.47;59.92
11523;BME280;40093;43.224;27.910;2023-03-14T05:52:21;100864.78;;;12.48;59.58
11523;BME280;40093;43.224;27.910;2023-03-14T05:54:48;100868.03;;;12.21;59.37
11523;BME280;40093;43.224;27.910;2023-03-14T05:57:15;100870.53;;;12.00;61.47
11523;BME280;40093;43.224;27.910;2023-03-14T05:59:42;100865.50;;;12.41;60.44
11523;BME280;40093;43.224;27.910;2023-03-14T06:02:09;100859.38;;;12.58;59.74
11523;BME280;40093;43.224;27.910;2023-03-14T06:04:36;100865.88;;;12.83;58.27
11523;BME280;40093;43.224;27.910;2023-03-14T06:07:03;100865.50;;;12.85;58.10
11523;BME280;40093;43.224;27.910;2023-03-14T06:09:31;100868.06;;;12.60;58.29
11523;BME280;40093;43.224;27.910;2023-03-14T06:11:58;100865.03;;;12.76;58.51
11523;BME280;40093;43.224;27.910;2023-03-14T06:14:25;100866.47;;;12.59;58.04
11523;BME280;40093;43.224;27.910;2023-03-14T06:16:52;100863.97;;;12.91;57.64
11523;BME280;40093;43.224;27.910;2023-03-14T06:19:19;100862.19;;;13.09;56.82
11523;BME280;40093;43.224;27.910;2023-03-14T06:21:46;100869.91;;;12.93;57.05
11523;BME280;40093;43.224;27.910;2023-03-14T06:24:13;100865.41;;;13.18;56.36
11523;BME280;40093;43.224;27.910;2023-03-14T06:26:41;100868.25;;;13.32;56.06
11523;BME280;40093;43.224;27.910;2023-03-14T06:29:08;100869.50;;;13.38;56.03
11523;BME280;40093;43.224;27.910;2023-03-14T06:31:35;100866.84;;;13.59;55.91
11523;BME280;40093;43.224;27.910;2023-03-14T06:34:02;100853.44;;;13.68;54.72
11523;BME280;40093;43.224;27.910;2023-03-14T06:36:29;100853.44;;;13.68;54.64
11523;BME280;40093;43.224;27.910;2023-03-14T06:38:56;100855.47;;;13.81;55.27
11523;BME280;40093;43.224;27.910;2023-03-14T06:41:23;100860.69;;;13.97;54.53
11523;BME280;40093;43.224;27.910;2023-03-14T06:43:53;100857.16;;;14.07;54.46
11523;BME280;40093;43.224;27.910;2023-03-14T06:46:20;100846.84;;;13.90;54.23
11523;BME280;40093;43.224;27.910;2023-03-14T06:48:46;100846.81;;;13.93;54.05
11523;BME280;40093;43.224;27.910;2023-03-14T06:51:13;100852.19;;;13.55;54.90
11523;BME280;40093;43.224;27.910;2023-03-14T06:53:40;100855.53;;;13.88;54.79
11523;BME280;40093;43.224;27.910;2023-03-14T06:56:08;100837.22;;;13.63;54.81
11523;BME280;40093;43.224;27.910;2023-03-14T06:58:35;100842.75;;;13.63;54.88
11523;BME280;40093;43.224;27.910;2023-03-14T07:01:06;100841.88;;;13.45;55.00
11523;BME280;40093;43.224;27.910;2023-03-14T07:03:37;100836.75;;;13.47;55.32
11523;BME280;40093;43.224;27.910;2023-03-14T07:06:04;100841.38;;;13.29;55.51
11523;BME280;40093;43.224;27.910;2023-03-14T07:08:31;100830.66;;;13.17;56.10
11523;BME280;40093;43.224;27.910;2023-03-14T07:10:58;100826.53;;;12.93;57.51
11523;BME280;40093;43.224;27.910;2023-03-14T07:13:25;100836.34;;;13.48;56.92
11523;BME280;40093;43.224;27.910;2023-03-14T07:15:51;100836.13;;;13.85;54.97
11523;BME280;40093;43.224;27.910;2023-03-14T07:18:20;100831.81;;;13.98;54.54
11523;BME280;40093;43.224;27.910;2023-03-14T07:20:47;100823.56;;;14.08;54.05
11523;BME280;40093;43.224;27.910;2023-03-14T07:23:14;100830.72;;;14.20;53.74
11523;BME280;40093;43.224;27.910;2023-03-14T07:25:41;100817.72;;;14.27;53.80
11523;BME280;40093;43.224;27.910;2023-03-14T07:28:07;100825.78;;;13.64;54.81
11523;BME280;40093;43.224;27.910;2023-03-14T07:30:34;100829.41;;;13.86;54.50
11523;BME280;40093;43.224;27.910;2023-03-14T07:33:02;100822.78;;;14.01;53.62
11523;BME280;40093;43.224;27.910;2023-03-14T07:35:30;100827.06;;;13.91;54.28
11523;BME280;40093;43.224;27.910;2023-03-14T07:37:57;100815.22;;;13.98;54.42
11523;BME280;40093;43.224;27.910;2023-03-14T07:40:24;100823.72;;;13.47;55.81
11523;BME280;40093;43.224;27.910;2023-03-14T07:42:50;100819.06;;;13.62;55.87
11523;BME280;40093;43.224;27.910;2023-03-14T07:45:20;100823.09;;;13.82;55.22
11523;BME280;40093;43.224;27.910;2023-03-14T07:47:47;100818.34;;;13.79;55.04
11523;BME280;40093;43.224;27.910;2023-03-14T07:50:14;100820.72;;;13.80;55.02
11523;BME280;40093;43.224;27.910;2023-03-14T07:52:42;100823.47;;;13.80;54.94
11523;BME280;40093;43.224;27.910;2023-03-14T07:55:09;100821.06;;;13.72;55.06
11523;BME280;40093;43.224;27.910;2023-03-14T07:57:38;100817.47;;;13.61;55.64
11523;BME280;40093;43.224;27.910;2023-03-14T08:00:07;100805.59;;;13.57;55.99
11523;BME280;40093;43.224;27.910;2023-03-14T08:02:34;100809.13;;;13.47;56.12
11523;BME280;40093;43.224;27.910;2023-03-14T08:05:01;100805.94;;;13.45;56.55
11523;BME280;40093;43.224;27.910;2023-03-14T08:07:28;100807.44;;;13.32;56.92
11523;BME280;40093;43.224;27.910;2023-03-14T08:09:57;100800.16;;;12.99;58.07
11523;BME280;40093;43.224;27.910;2023-03-14T08:12:24;100802.03;;;12.92;58.11
11523;BME280;40093;43.224;27.910;2023-03-14T08:14:50;100797.19;;;12.75;58.67
11523;BME280;40093;43.224;27.910;2023-03-14T08:17:17;100789.34;;;12.84;58.97
11523;BME280;40093;43.224;27.910;2023-03-14T08:19:44;100779.22;;;12.98;58.54
11523;BME280;40093;43.224;27.910;2023-03-14T08:22:11;100781.19;;;12.98;58.51
11523;BME280;40093;43.224;27.910;2023-03-14T08:24:38;100788.69;;;12.94;58.75
11523;BME280;40093;43.224;27.910;2023-03-14T08:27:08;100786.44;;;13.17;58.14
11523;BME280;40093;43.224;27.910;2023-03-14T08:29:35;100782.41;;;13.07;58.02
11523;BME280;40093;43.224;27.910;2023-03-14T08:32:01;100792.00;;;13.20;57.96
11523;BME280;40093;43.224;27.910;2023-03-14T08:34:28;100787.25;;;13.21;57.99
11523;BME280;40093;43.224;27.910;2023-03-14T08:36:55;100780.91;;;13.17;58.68
11523;BME280;40093;43.224;27.910;2023-03-14T08:39:22;100780.19;;;13.27;58.65
11523;BME280;40093;43.224;27.910;2023-03-14T08:41:50;100785.78;;;13.41;57.92
11523;BME280;40093;43.224;27.910;2023-03-14T08:44:18;100776.13;;;13.07;58.61
11523;BME280;40093;43.224;27.910;2023-03-14T08:46:45;100766.69;;;13.11;59.07
11523;BME280;40093;43.224;27.910;2023-03-14T08:49:12;100774.53;;;13.06;59.08
11523;BME280;40093;43.224;27.910;2023-03-14T08:51:39;100760.34;;;13.11;59.47
11523;BME280;40093;43.224;27.910;2023-03-14T08:54:09;100757.97;;;13.13;59.43
11523;BME280;40093;43.224;27.910;2023-03-14T08:56:36;100767.38;;;12.98;60.28
11523;BME280;40093;43.224;27.910;2023-03-14T08:59:04;100756.44;;;13.19;59.33
11523;BME280;40093;43.224;27.910;2023-03-14T09:01:32;100755.31;;;13.27;58.80
11523;BME280;40093;43.224;27.910;2023-03-14T09:03:59;100742.28;;;13.31;59.43
11523;BME280;40093;43.224;27.910;2023-03-14T09:06:26;100739.53;;;13.31;59.43
11523;BME280;40093;43.224;27.910;2023-03-14T09:08:53;100732.81;;;13.32;59.42
11523;BME280;40093;43.224;27.910;2023-03-14T09:11:19;100736.75;;;13.31;59.87
11523;BME280;40093;43.224;27.910;2023-03-14T09:13:47;100744.28;;;13.34;58.28
11523;BME280;40093;43.224;27.910;2023-03-14T09:16:15;100739.94;;;13.36;59.04
11523;BME280;40093;43.224;27.910;2023-03-14T09:18:43;100729.31;;;13.42;57.79
11523;BME280;40093;43.224;27.910;2023-03-14T09:21:10;100733.47;;;13.04;57.05
11523;BME280;40093;43.224;27.910;2023-03-14T09:23:38;100725.56;;;13.03;58.89
11523;BME280;40093;43.224;27.910;2023-03-14T09:26:06;100735.50;;;13.14;59.99
11523;BME280;40093;43.224;27.910;2023-03-14T09:28:33;100729.16;;;13.14;60.49
11523;BME280;40093;43.224;27.910;2023-03-14T09:31:05;100734.06;;;12.77;61.00
11523;BME280;40093;43.224;27.910;2023-03-14T09:33:33;100729.00;;;12.86;60.02
11523;BME280;40093;43.224;27.910;2023-03-14T09:36:02;100740.44;;;12.88;61.66
11523;BME280;40093;43.224;27.910;2023-03-14T09:38:29;100723.97;;;12.98;60.75
11523;BME280;40093;43.224;27.910;2023-03-14T09:40:59;100730.94;;;12.78;62.06
11523;BME280;40093;43.224;27.910;2023-03-14T09:43:29;100727.94;;;12.47;63.27
11523;BME280;40093;43.224;27.910;2023-03-14T09:45:57;100729.97;;;12.57;63.32
11523;BME280;40093;43.224;27.910;2023-03-14T09:48:30;100714.13;;;12.47;63.55
11523;BME280;40093;43.224;27.910;2023-03-14T09:50:59;100729.94;;;12.53;63.85
11523;BME280;40093;43.224;27.910;2023-03-14T09:53:37;100726.84;;;12.58;63.55
11523;BME280;40093;43.224;27.910;2023-03-14T09:56:10;100716.19;;;12.57;63.01
11523;BME280;40093;43.224;27.910;2023-03-14T09:58:40;100715.00;;;12.58;62.34
11523;BME280;40093;43.224;27.910;2023-03-14T10:01:09;100706.38;;;12.63;62.85
11523;BME280;40093;43.224;27.910;2023-03-14T10:03:38;100697.63;;;12.54;64.09
11523;BME280;40093;43.224;27.910;2023-03-14T10:06:11;100707.13;;;12.60;63.27
11523;BME280;40093;43.224;27.910;2023-03-14T10:08:41;100682.66;;;12.55;64.39
11523;BME280;40093;43.224;27.910;2023-03-14T10:11:13;100694.91;;;12.57;64.57
11523;BME280;40093;43.224;27.910;2023-03-14T10:13:48;100688.06;;;12.41;63.78
11523;BME280;40093;43.224;27.910;2023-03-14T10:16:15;100684.88;;;12.39;63.46
11523;BME280;40093;43.224;27.910;2023-03-14T10:18:45;100690.88;;;12.48;64.57
11523;BME280;40093;43.224;27.910;2023-03-14T10:21:21;100678.22;;;12.43;64.68
11523;BME280;40093;43.224;27.910;2023-03-14T10:23:50;100684.22;;;12.56;64.02
11523;BME280;40093;43.224;27.910;2023-03-14T10:26:17;100666.09;;;12.55;65.26
11523;BME280;40093;43.224;27.910;2023-03-14T10:28:46;100674.03;;;12.67;62.39
11523;BME280;40093;43.224;27.910;2023-03-14T10:31:14;100673.31;;;12.77;63.08
11523;BME280;40093;43.224;27.910;2023-03-14T10:33:41;100653.97;;;12.77;62.58
11523;BME280;40093;43.224;27.910;2023-03-14T10:36:18;100658.31;;;12.78;63.90
11523;BME280;40093;43.224;27.910;2023-03-14T10:38:47;100655.56;;;12.78;61.35
11523;BME280;40093;43.224;27.910;2023-03-14T10:41:18;100657.56;;;12.77;61.29
11523;BME280;40093;43.224;27.910;2023-03-14T10:43:49;100648.09;;;12.78;62.79
11523;BME280;40093;43.224;27.910;2023-03-14T10:46:19;100633.13;;;12.83;62.63
11523;BME280;40093;43.224;27.910;2023-03-14T10:48:48;100623.63;;;12.80;62.85
11523;BME280;40093;43.224;27.910;2023-03-14T10:51:19;100622.03;;;12.76;61.32
11523;BME280;40093;43.224;27.910;2023-03-14T10:53:47;100620.44;;;12.71;61.71
11523;BME280;40093;43.224;27.910;2023-03-14T10:56:18;100610.19;;;12.75;61.82
11523;BME280;40093;43.224;27.910;2023-03-14T10:58:46;100608.63;;;12.81;61.41
11523;BME280;40093;43.224;27.910;2023-03-14T11:01:23;100601.56;;;12.84;60.35
11523;BME280;40093;43.224;27.910;2023-03-14T11:03:57;100601.13;;;12.75;60.41
11523;BME280;40093;43.224;27.910;2023-03-14T11:06:30;100592.06;;;12.81;62.23
11523;BME280;40093;43.224;27.910;2023-03-14T11:09:06;100589.66;;;12.73;61.10
11523;BME280;40093;43.224;27.910;2023-03-14T11:11:39;100589.59;;;12.59;62.46
11523;BME280;40093;43.224;27.910;2023-03-14T11:14:18;100572.28;;;12.69;61.18
11523;BME280;40093;43.224;27.910;2023-03-14T11:16:53;100572.28;;;12.69;61.86
11523;BME280;40093;43.224;27.910;2023-03-14T11:19:54;100559.66;;;12.68;60.87
11523;BME280;40093;43.224;27.910;2023-03-14T11:22:32;100560.91;;;12.77;61.77
11523;BME280;40093;43.224;27.910;2023-03-14T11:25:18;100546.31;;;12.87;60.72
11523;BME280;40093;43.224;27.910;2023-03-14T11:27:55;100540.75;;;12.77;61.03
11523;BME280;40093;43.224;27.910;2023-03-14T11:30:34;100541.97;;;12.83;59.23
11523;BME280;40093;43.224;27.910;2023-03-14T11:33:07;100530.50;;;12.70;59.79
11523;BME280;40093;43.224;27.910;2023-03-14T11:35:37;100535.59;;;12.72;60.64
11523;BME280;40093;43.224;27.910;2023-03-14T11:38:15;100517.81;;;12.52;62.26
11523;BME280;40093;43.224;27.910;2023-03-14T11:40:43;100528.81;;;12.45;61.16
11523;BME280;40093;43.224;27.910;2023-03-14T11:43:15;100513.03;;;12.42;60.99
11523;BME280;40093;43.224;27.910;2023-03-14T11:45:45;100508.72;;;12.51;62.06
11523;BME280;40093;43.224;27.910;2023-03-14T11:48:20;100502.84;;;12.56;62.72
11523;BME280;40093;43.224;27.910;2023-03-14T11:50:52;100507.13;;;12.47;62.04
11523;BME280;40093;43.224;27.910;2023-03-14T11:53:22;100488.63;;;12.58;61.14
11523;BME280;40093;43.224;27.910;2023-03-14T11:55:52;100494.94;;;12.55;57.93
11523;BME280;40093;43.224;27.910;2023-03-14T11:58:24;100483.09;;;12.54;59.90
11523;BME280;40093;43.224;27.910;2023-03-14T12:00:54;100474.06;;;12.68;59.36
11523;BME280;40093;43.224;27.910;2023-03-14T12:03:28;100475.69;;;12.79;55.50
11523;BME280;40093;43.224;27.910;2023-03-14T12:06:02;100491.06;;;12.77;55.42
11523;BME280;40093;43.224;27.910;2023-03-14T12:08:45;100475.94;;;12.39;59.56
11523;BME280;40093;43.224;27.910;2023-03-14T12:11:18;100468.78;;;12.21;57.18
11523;BME280;40093;43.224;27.910;2023-03-14T12:13:49;100454.63;;;12.33;56.68
11523;BME280;40093;43.224;27.910;2023-03-14T12:16:30;100453.03;;;12.25;58.23
11523;BME280;40093;43.224;27.910;2023-03-14T12:19:13;100441.19;;;12.21;62.06
11523;BME280;40093;43.224;27.910;2023-03-14T12:21:47;100448.97;;;12.05;62.29
11523;BME280;40093;43.224;27.910;2023-03-14T12:24:18;100437.03;;;11.80;62.16
11523;BME280;40093;43.224;27.910;2023-03-14T12:26:52;100432.25;;;11.70;59.95
11523;BME280;40093;43.224;27.910;2023-03-14T12:29:22;100415.69;;;11.67;61.64
11523;BME280;40093;43.224;27.910;2023-03-14T12:32:06;100424.44;;;11.79;61.53
11523;BME280;40093;43.224;27.910;2023-03-14T12:34:33;100425.22;;;11.80;61.13
11523;BME280;40093;43.224;27.910;2023-03-14T12:37:16;100417.34;;;11.78;62.82
11523;BME280;40093;43.224;27.910;2023-03-14T12:39:53;100415.34;;;11.75;61.10
11523;BME280;40093;43.224;27.910;2023-03-14T12:42:37;100405.47;;;11.71;60.59
11523;BME280;40093;43.224;27.910;2023-03-14T12:45:22;100405.47;;;11.67;62.38
11523;BME280;40093;43.224;27.910;2023-03-14T12:47:56;100393.63;;;11.63;60.55
11523;BME280;40093;43.224;27.910;2023-03-14T12:50:31;100397.44;;;11.48;62.82
11523;BME280;40093;43.224;27.910;2023-03-14T12:53:52;100395.03;;;11.43;64.77